ASA1338 KSEA-KLAX
Flight info
| Callsign | ASA1338 |
|---|---|
| Flight time | 2h 8m |
| Altitude | 39000 |
| Route | OZWLD1 OZWLD KPOWW SEA152033 JINMO Q7 JAGWA BURGL IRNMN2 |
| Aircraft | B38M/M-SDE1FGHILORVWXY/HB1 |
Departure
| Time | 2026-04-24 03:25 |
|---|---|
| Airport | Seattle–Tacoma International Airport (KSEA) |
Arrival
| Time | 2026-04-24 05:34 |
|---|---|
| Airport | Los Angeles International Airport (KLAX) |
| Time | Latitude | Longitude | Altitude | Speed | Heading |
|---|---|---|---|---|---|
| 2026-04-24 02:39 | 47.44576 | -122.30110 | 405 ft | 0 kts | 135° |
| 2026-04-24 03:15 | 47.44588 | -122.30128 | 404 ft | 4 kts | 129° |
| 2026-04-24 03:15 | 47.44604 | -122.30160 | 406 ft | 4 kts | 132° |
| 2026-04-24 03:16 | 47.44629 | -122.30186 | 404 ft | 4 kts | 178° |
| 2026-04-24 03:16 | 47.44643 | -122.30181 | 404 ft | 4 kts | 217° |
| 2026-04-24 03:16 | 47.44660 | -122.30143 | 407 ft | 1 kts | 259° |
| 2026-04-24 03:16 | 47.44660 | -122.30142 | 407 ft | 1 kts | 260° |
| 2026-04-24 03:18 | 47.44658 | -122.30156 | 407 ft | 3 kts | 260° |
| 2026-04-24 03:19 | 47.44662 | -122.30215 | 407 ft | 8 kts | 285° |
| 2026-04-24 03:19 | 47.44695 | -122.30304 | 407 ft | 11 kts | 309° |
| 2026-04-24 03:19 | 47.44746 | -122.30394 | 409 ft | 12 kts | 310° |
| 2026-04-24 03:19 | 47.44797 | -122.30502 | 409 ft | 14 kts | 293° |
| 2026-04-24 03:20 | 47.44774 | -122.30625 | 407 ft | 13 kts | 197° |
| 2026-04-24 03:20 | 47.44670 | -122.30629 | 403 ft | 17 kts | 182° |
| 2026-04-24 03:20 | 47.44535 | -122.30631 | 398 ft | 22 kts | 180° |
| 2026-04-24 03:20 | 47.44370 | -122.30633 | 395 ft | 25 kts | 180° |
| 2026-04-24 03:21 | 47.44198 | -122.30634 | 391 ft | 22 kts | 181° |
| 2026-04-24 03:21 | 47.44038 | -122.30636 | 387 ft | 24 kts | 180° |
| 2026-04-24 03:21 | 47.43863 | -122.30638 | 382 ft | 27 kts | 179° |
| 2026-04-24 03:21 | 47.43705 | -122.30640 | 377 ft | 21 kts | 178° |
| 2026-04-24 03:22 | 47.43575 | -122.30576 | 373 ft | 18 kts | 152° |
| 2026-04-24 03:22 | 47.43474 | -122.30559 | 370 ft | 16 kts | 180° |
| 2026-04-24 03:22 | 47.43347 | -122.30558 | 370 ft | 21 kts | 179° |
| 2026-04-24 03:22 | 47.43213 | -122.30590 | 367 ft | 16 kts | 215° |
| 2026-04-24 03:23 | 47.43180 | -122.30644 | 361 ft | 0 kts | 243° |
| 2026-04-24 03:23 | 47.43178 | -122.30656 | 361 ft | 0 kts | 258° |
| 2026-04-24 03:24 | 47.43176 | -122.30675 | 363 ft | 4 kts | 265° |
| 2026-04-24 03:24 | 47.43175 | -122.30746 | 360 ft | 10 kts | 270° |
| 2026-04-24 03:24 | 47.43214 | -122.30808 | 363 ft | 9 kts | 5° |
| 2026-04-24 03:24 | 47.43302 | -122.30804 | 363 ft | 23 kts | 0° |
| 2026-04-24 03:25 | 47.43738 | -122.30802 | 375 ft | 100 kts | 0° |
| 2026-04-24 03:25 | 47.44655 | -122.30792 | 403 ft | 161 kts | 1° |
| 2026-04-24 03:25 | 47.45838 | -122.30769 | 976 ft | 172 kts | 358° |
| 2026-04-24 03:25 | 47.47063 | -122.30749 | 1824 ft | 177 kts | 5° |
| 2026-04-24 03:26 | 47.48279 | -122.30410 | 2582 ft | 186 kts | 14° |
| 2026-04-24 03:26 | 47.49666 | -122.29994 | 2796 ft | 222 kts | 4° |
| 2026-04-24 03:26 | 47.51270 | -122.30136 | 3382 ft | 240 kts | 353° |
| 2026-04-24 03:26 | 47.52980 | -122.30416 | 4056 ft | 254 kts | 354° |
| 2026-04-24 03:27 | 47.54731 | -122.30657 | 5138 ft | 250 kts | 355° |
| 2026-04-24 03:27 | 47.56452 | -122.30872 | 6228 ft | 247 kts | 355° |
| 2026-04-24 03:27 | 47.58152 | -122.30678 | 7168 ft | 248 kts | 17° |
| 2026-04-24 03:27 | 47.59626 | -122.29328 | 8050 ft | 256 kts | 42° |
| 2026-04-24 03:28 | 47.60601 | -122.27057 | 8532 ft | 270 kts | 66° |
| 2026-04-24 03:28 | 47.60775 | -122.24244 | 9328 ft | 282 kts | 91° |
| 2026-04-24 03:28 | 47.60187 | -122.21411 | 10139 ft | 299 kts | 112° |
| 2026-04-24 03:28 | 47.58789 | -122.18978 | 10601 ft | 325 kts | 142° |
| 2026-04-24 03:29 | 47.56644 | -122.17647 | 10982 ft | 348 kts | 171° |
| 2026-04-24 03:29 | 47.54168 | -122.17311 | 11341 ft | 368 kts | 174° |
| 2026-04-24 03:29 | 47.51570 | -122.16831 | 11757 ft | 383 kts | 173° |
| 2026-04-24 03:29 | 47.48890 | -122.16291 | 12388 ft | 391 kts | 173° |
| 2026-04-24 03:30 | 47.46177 | -122.15746 | 13137 ft | 397 kts | 173° |
| 2026-04-24 03:30 | 47.43417 | -122.15185 | 13867 ft | 404 kts | 173° |
| 2026-04-24 03:30 | 47.40613 | -122.14608 | 14558 ft | 409 kts | 173° |
| 2026-04-24 03:30 | 47.37820 | -122.14038 | 15297 ft | 413 kts | 173° |
| 2026-04-24 03:31 | 47.34924 | -122.13449 | 16055 ft | 417 kts | 174° |
| 2026-04-24 03:31 | 47.32035 | -122.12859 | 16817 ft | 420 kts | 174° |
| 2026-04-24 03:31 | 47.29130 | -122.12272 | 17523 ft | 424 kts | 174° |
| 2026-04-24 03:31 | 47.26185 | -122.11671 | 18227 ft | 429 kts | 174° |
| 2026-04-24 03:32 | 47.23255 | -122.11079 | 18891 ft | 432 kts | 174° |
| 2026-04-24 03:32 | 47.20263 | -122.10475 | 19461 ft | 436 kts | 174° |
| 2026-04-24 03:32 | 47.17240 | -122.09863 | 20057 ft | 440 kts | 174° |
| 2026-04-24 03:32 | 47.14193 | -122.09248 | 20637 ft | 444 kts | 174° |
| 2026-04-24 03:33 | 47.11125 | -122.08634 | 21191 ft | 448 kts | 174° |
| 2026-04-24 03:33 | 47.08032 | -122.08004 | 21866 ft | 448 kts | 173° |
| 2026-04-24 03:33 | 47.04937 | -122.07389 | 22543 ft | 450 kts | 173° |
| 2026-04-24 03:33 | 47.01817 | -122.06763 | 23062 ft | 455 kts | 173° |
| 2026-04-24 03:34 | 46.98669 | -122.06135 | 23646 ft | 458 kts | 173° |
| 2026-04-24 03:34 | 46.95495 | -122.05500 | 24119 ft | 462 kts | 173° |
| 2026-04-24 03:34 | 46.92296 | -122.04863 | 24575 ft | 465 kts | 173° |
| 2026-04-24 03:34 | 46.89078 | -122.04223 | 25038 ft | 469 kts | 173° |
| 2026-04-24 03:35 | 46.85835 | -122.03579 | 25456 ft | 473 kts | 173° |
| 2026-04-24 03:35 | 46.82562 | -122.02930 | 25892 ft | 476 kts | 173° |
| 2026-04-24 03:35 | 46.79266 | -122.02278 | 26321 ft | 480 kts | 173° |
| 2026-04-24 03:35 | 46.75950 | -122.01620 | 26762 ft | 482 kts | 173° |
| 2026-04-24 03:36 | 46.72615 | -122.00963 | 27190 ft | 485 kts | 173° |
| 2026-04-24 03:36 | 46.69254 | -122.00300 | 27581 ft | 489 kts | 173° |
| 2026-04-24 03:36 | 46.65874 | -121.99636 | 27966 ft | 492 kts | 174° |
| 2026-04-24 03:36 | 46.62467 | -121.99483 | 28499 ft | 487 kts | 189° |
| 2026-04-24 03:37 | 46.59184 | -122.00546 | 28943 ft | 484 kts | 202° |
| 2026-04-24 03:37 | 46.55999 | -122.02188 | 29207 ft | 489 kts | 203° |
| 2026-04-24 03:37 | 46.52799 | -122.03892 | 29600 ft | 490 kts | 204° |
| 2026-04-24 03:37 | 46.49599 | -122.05635 | 29940 ft | 493 kts | 204° |
| 2026-04-24 03:38 | 46.46384 | -122.07408 | 30284 ft | 496 kts | 205° |
| 2026-04-24 03:38 | 46.43152 | -122.09200 | 30594 ft | 499 kts | 205° |
| 2026-04-24 03:38 | 46.39885 | -122.10939 | 30883 ft | 503 kts | 200° |
| 2026-04-24 03:38 | 46.36420 | -122.11795 | 31259 ft | 509 kts | 183° |
| 2026-04-24 03:39 | 46.32895 | -122.11377 | 31751 ft | 509 kts | 172° |
| 2026-04-24 03:39 | 46.29384 | -122.10597 | 32064 ft | 511 kts | 172° |
| 2026-04-24 03:39 | 46.25867 | -122.09795 | 32420 ft | 512 kts | 172° |
| 2026-04-24 03:39 | 46.22348 | -122.08970 | 32799 ft | 513 kts | 172° |
| 2026-04-24 03:40 | 46.18829 | -122.08132 | 33198 ft | 513 kts | 172° |
| 2026-04-24 03:40 | 46.15357 | -122.07303 | 33597 ft | 513 kts | 172° |
| 2026-04-24 03:40 | 46.11837 | -122.06462 | 33956 ft | 513 kts | 172° |
| 2026-04-24 03:40 | 46.08313 | -122.05622 | 34296 ft | 513 kts | 172° |
| 2026-04-24 03:41 | 46.04792 | -122.04783 | 34633 ft | 513 kts | 172° |
| 2026-04-24 03:41 | 46.01277 | -122.03947 | 35049 ft | 511 kts | 172° |
| 2026-04-24 03:41 | 45.97771 | -122.03114 | 35421 ft | 510 kts | 172° |
| 2026-04-24 03:41 | 45.94275 | -122.02285 | 35809 ft | 509 kts | 172° |
| 2026-04-24 03:42 | 45.90786 | -122.01458 | 36130 ft | 507 kts | 172° |
| 2026-04-24 03:42 | 45.87320 | -122.00639 | 36573 ft | 503 kts | 172° |
| 2026-04-24 03:42 | 45.83878 | -121.99826 | 36998 ft | 500 kts | 172° |
| 2026-04-24 03:42 | 45.80454 | -121.99018 | 37375 ft | 498 kts | 173° |
| 2026-04-24 03:43 | 45.77043 | -121.98214 | 37707 ft | 496 kts | 173° |
| 2026-04-24 03:43 | 45.73639 | -121.97409 | 38043 ft | 495 kts | 173° |
| 2026-04-24 03:43 | 45.70253 | -121.96614 | 38433 ft | 491 kts | 173° |
| 2026-04-24 03:43 | 45.66886 | -121.95825 | 38749 ft | 489 kts | 173° |
| 2026-04-24 03:44 | 45.63532 | -121.95038 | 39003 ft | 488 kts | 173° |
| 2026-04-24 03:44 | 45.60182 | -121.94252 | 39173 ft | 488 kts | 173° |
| 2026-04-24 03:44 | 45.56825 | -121.93467 | 39192 ft | 488 kts | 173° |
| 2026-04-24 03:45 | 45.50152 | -121.91907 | 39182 ft | 484 kts | 173° |
| 2026-04-24 03:45 | 45.43543 | -121.90367 | 39175 ft | 478 kts | 173° |
| 2026-04-24 03:46 | 45.36987 | -121.88844 | 39182 ft | 478 kts | 173° |
| 2026-04-24 03:46 | 45.30429 | -121.87323 | 39177 ft | 477 kts | 173° |
| 2026-04-24 03:47 | 45.23934 | -121.85819 | 39192 ft | 476 kts | 173° |
| 2026-04-24 03:47 | 45.17401 | -121.84311 | 39189 ft | 475 kts | 173° |
| 2026-04-24 03:48 | 45.10874 | -121.82808 | 39185 ft | 476 kts | 173° |
| 2026-04-24 03:48 | 45.04349 | -121.81309 | 39179 ft | 473 kts | 173° |
| 2026-04-24 03:49 | 44.97859 | -121.79821 | 39182 ft | 473 kts | 173° |
| 2026-04-24 03:49 | 44.91360 | -121.78334 | 39179 ft | 473 kts | 173° |
| 2026-04-24 03:50 | 44.84869 | -121.76853 | 39182 ft | 473 kts | 173° |
| 2026-04-24 03:50 | 44.78373 | -121.75374 | 39156 ft | 473 kts | 174° |
| 2026-04-24 03:51 | 44.71881 | -121.73899 | 39149 ft | 473 kts | 174° |
| 2026-04-24 03:51 | 44.65390 | -121.72427 | 39147 ft | 472 kts | 174° |
| 2026-04-24 03:52 | 44.58912 | -121.70963 | 39135 ft | 472 kts | 173° |
| 2026-04-24 03:52 | 44.52497 | -121.69515 | 39138 ft | 469 kts | 173° |
| 2026-04-24 03:53 | 44.46048 | -121.68063 | 39132 ft | 469 kts | 173° |
| 2026-04-24 03:53 | 44.39593 | -121.66612 | 39144 ft | 470 kts | 173° |
| 2026-04-24 03:54 | 44.33139 | -121.65158 | 39137 ft | 470 kts | 173° |
| 2026-04-24 03:54 | 44.26683 | -121.63654 | 39124 ft | 470 kts | 173° |
| 2026-04-24 03:55 | 44.20231 | -121.62158 | 39120 ft | 470 kts | 173° |
| 2026-04-24 03:55 | 44.13776 | -121.60665 | 39092 ft | 470 kts | 173° |
| 2026-04-24 03:56 | 44.07331 | -121.59178 | 39101 ft | 470 kts | 173° |
| 2026-04-24 03:56 | 44.00876 | -121.57691 | 39111 ft | 470 kts | 173° |
| 2026-04-24 03:57 | 43.94422 | -121.56208 | 39098 ft | 470 kts | 173° |
| 2026-04-24 03:57 | 43.88006 | -121.54737 | 39104 ft | 470 kts | 173° |
| 2026-04-24 03:58 | 43.81547 | -121.53260 | 39109 ft | 471 kts | 173° |
| 2026-04-24 03:58 | 43.75080 | -121.51784 | 39103 ft | 471 kts | 173° |
| 2026-04-24 03:59 | 43.68612 | -121.50310 | 39097 ft | 471 kts | 172° |
| 2026-04-24 03:59 | 43.62134 | -121.48839 | 39105 ft | 474 kts | 172° |
| 2026-04-24 04:00 | 43.55627 | -121.47363 | 39101 ft | 474 kts | 172° |
| 2026-04-24 04:00 | 43.49116 | -121.45891 | 39099 ft | 474 kts | 172° |
| 2026-04-24 04:01 | 43.42601 | -121.44420 | 39098 ft | 475 kts | 172° |
| 2026-04-24 04:01 | 43.36075 | -121.42950 | 39099 ft | 475 kts | 172° |
| 2026-04-24 04:02 | 43.29560 | -121.41485 | 39095 ft | 475 kts | 172° |
| 2026-04-24 04:02 | 43.23038 | -121.40022 | 39093 ft | 475 kts | 172° |
| 2026-04-24 04:03 | 43.16560 | -121.38573 | 39083 ft | 475 kts | 172° |
| 2026-04-24 04:03 | 43.10044 | -121.37117 | 39078 ft | 474 kts | 172° |
| 2026-04-24 04:04 | 43.03535 | -121.35667 | 39080 ft | 475 kts | 172° |
| 2026-04-24 04:04 | 42.97010 | -121.34215 | 39080 ft | 474 kts | 172° |
| 2026-04-24 04:05 | 42.90495 | -121.32769 | 39076 ft | 474 kts | 172° |
| 2026-04-24 04:05 | 42.83992 | -121.31331 | 39078 ft | 472 kts | 173° |
| 2026-04-24 04:06 | 42.77543 | -121.29905 | 39075 ft | 468 kts | 173° |
| 2026-04-24 04:06 | 42.72188 | -121.28723 | 39081 ft | 469 kts | 173° |
| 2026-04-24 04:07 | 42.65751 | -121.27306 | 39083 ft | 468 kts | 173° |
| 2026-04-24 04:07 | 42.59334 | -121.25896 | 39084 ft | 468 kts | 173° |
| 2026-04-24 04:08 | 42.52904 | -121.24487 | 39085 ft | 467 kts | 173° |
| 2026-04-24 04:08 | 42.46486 | -121.23083 | 39083 ft | 467 kts | 173° |
| 2026-04-24 04:09 | 42.40065 | -121.21680 | 39085 ft | 467 kts | 173° |
| 2026-04-24 04:09 | 42.33642 | -121.20280 | 39085 ft | 467 kts | 174° |
| 2026-04-24 04:10 | 42.27267 | -121.18895 | 39089 ft | 467 kts | 174° |
| 2026-04-24 04:10 | 42.20852 | -121.17502 | 39090 ft | 467 kts | 174° |
| 2026-04-24 04:11 | 42.11223 | -121.15418 | 39084 ft | 467 kts | 174° |
| 2026-04-24 04:11 | 42.04799 | -121.14032 | 39073 ft | 468 kts | 174° |
| 2026-04-24 04:12 | 41.98368 | -121.12646 | 39076 ft | 468 kts | 174° |
| 2026-04-24 04:12 | 41.91934 | -121.11262 | 39069 ft | 468 kts | 174° |
| 2026-04-24 04:13 | 41.85510 | -121.09884 | 39066 ft | 468 kts | 174° |
| 2026-04-24 04:13 | 41.79073 | -121.08506 | 39067 ft | 468 kts | 174° |
| 2026-04-24 04:14 | 41.72644 | -121.07132 | 39068 ft | 468 kts | 174° |
| 2026-04-24 04:14 | 41.66210 | -121.05759 | 39071 ft | 468 kts | 174° |
| 2026-04-24 04:15 | 41.59786 | -121.04392 | 39069 ft | 467 kts | 175° |
| 2026-04-24 04:15 | 41.53370 | -121.03030 | 39067 ft | 467 kts | 175° |
| 2026-04-24 04:16 | 41.46933 | -121.01665 | 39078 ft | 468 kts | 175° |
| 2026-04-24 04:16 | 41.40546 | -121.00314 | 39076 ft | 468 kts | 175° |
| 2026-04-24 04:17 | 41.34113 | -120.98956 | 39064 ft | 468 kts | 175° |
| 2026-04-24 04:17 | 41.27671 | -120.97598 | 39068 ft | 469 kts | 175° |
| 2026-04-24 04:18 | 41.21226 | -120.96243 | 39053 ft | 468 kts | 175° |
| 2026-04-24 04:18 | 41.14791 | -120.94892 | 39059 ft | 468 kts | 175° |
| 2026-04-24 04:19 | 41.08365 | -120.93546 | 39051 ft | 468 kts | 175° |
| 2026-04-24 04:19 | 41.01929 | -120.92200 | 39052 ft | 468 kts | 176° |
| 2026-04-24 04:20 | 40.95478 | -120.91471 | 39072 ft | 465 kts | 181° |
| 2026-04-24 04:20 | 40.89018 | -120.90939 | 39057 ft | 464 kts | 181° |
| 2026-04-24 04:21 | 40.82573 | -120.90422 | 39051 ft | 464 kts | 181° |
| 2026-04-24 04:21 | 40.76112 | -120.89907 | 39068 ft | 465 kts | 181° |
| 2026-04-24 04:22 | 40.69652 | -120.89391 | 39044 ft | 464 kts | 181° |
| 2026-04-24 04:22 | 40.63248 | -120.88881 | 39050 ft | 465 kts | 181° |
| 2026-04-24 04:23 | 40.56789 | -120.88370 | 39062 ft | 465 kts | 181° |
| 2026-04-24 04:23 | 40.50321 | -120.87855 | 39054 ft | 465 kts | 181° |
| 2026-04-24 04:24 | 40.43863 | -120.87344 | 39056 ft | 465 kts | 181° |
| 2026-04-24 04:24 | 40.37404 | -120.86834 | 39061 ft | 465 kts | 181° |
| 2026-04-24 04:25 | 40.30951 | -120.86325 | 39065 ft | 465 kts | 181° |
| 2026-04-24 04:25 | 40.24496 | -120.85817 | 39044 ft | 464 kts | 182° |
| 2026-04-24 04:26 | 40.18045 | -120.85311 | 39045 ft | 463 kts | 182° |
| 2026-04-24 04:26 | 40.11608 | -120.84805 | 39101 ft | 466 kts | 182° |
| 2026-04-24 04:27 | 40.05152 | -120.84300 | 39046 ft | 464 kts | 182° |
| 2026-04-24 04:27 | 39.98705 | -120.83796 | 39063 ft | 464 kts | 182° |
| 2026-04-24 04:28 | 39.92260 | -120.83295 | 39067 ft | 464 kts | 182° |
| 2026-04-24 04:28 | 39.85815 | -120.82794 | 39072 ft | 464 kts | 182° |
| 2026-04-24 04:29 | 39.79388 | -120.82294 | 39070 ft | 463 kts | 182° |
| 2026-04-24 04:29 | 39.72961 | -120.81796 | 39065 ft | 462 kts | 182° |
| 2026-04-24 04:30 | 39.66582 | -120.81303 | 39045 ft | 462 kts | 182° |
| 2026-04-24 04:30 | 39.60163 | -120.80808 | 39093 ft | 463 kts | 182° |
| 2026-04-24 04:31 | 39.53748 | -120.80312 | 39078 ft | 461 kts | 182° |
| 2026-04-24 04:31 | 39.47344 | -120.79820 | 39067 ft | 460 kts | 182° |
| 2026-04-24 04:32 | 39.40954 | -120.79331 | 39061 ft | 460 kts | 182° |
| 2026-04-24 04:32 | 39.34569 | -120.78840 | 39132 ft | 460 kts | 182° |
| 2026-04-24 04:33 | 39.28178 | -120.78351 | 39125 ft | 460 kts | 182° |
| 2026-04-24 04:33 | 39.21799 | -120.77864 | 39143 ft | 459 kts | 182° |
| 2026-04-24 04:34 | 39.15415 | -120.77376 | 39140 ft | 460 kts | 182° |
| 2026-04-24 04:34 | 39.09038 | -120.76892 | 39098 ft | 459 kts | 182° |
| 2026-04-24 04:35 | 39.02662 | -120.76407 | 39090 ft | 459 kts | 182° |
| 2026-04-24 04:35 | 38.96293 | -120.75925 | 39073 ft | 458 kts | 182° |
| 2026-04-24 04:36 | 38.89924 | -120.75442 | 39076 ft | 458 kts | 182° |
| 2026-04-24 04:36 | 38.83555 | -120.74961 | 39109 ft | 459 kts | 182° |
| 2026-04-24 04:37 | 38.77185 | -120.74480 | 39095 ft | 458 kts | 182° |
| 2026-04-24 04:37 | 38.70827 | -120.74002 | 39086 ft | 456 kts | 182° |
| 2026-04-24 04:38 | 38.64506 | -120.73527 | 39063 ft | 455 kts | 182° |
| 2026-04-24 04:38 | 38.58223 | -120.73056 | 39066 ft | 455 kts | 182° |
| 2026-04-24 04:39 | 38.51903 | -120.72583 | 39067 ft | 455 kts | 182° |
| 2026-04-24 04:39 | 38.45587 | -120.72110 | 39073 ft | 455 kts | 182° |
| 2026-04-24 04:40 | 38.39260 | -120.71639 | 39073 ft | 455 kts | 182° |
| 2026-04-24 04:40 | 38.32938 | -120.71168 | 39058 ft | 455 kts | 182° |
| 2026-04-24 04:41 | 38.26620 | -120.70698 | 39062 ft | 455 kts | 182° |
| 2026-04-24 04:41 | 38.20300 | -120.70229 | 39073 ft | 455 kts | 182° |
| 2026-04-24 04:42 | 38.13979 | -120.69760 | 39055 ft | 455 kts | 182° |
| 2026-04-24 04:42 | 38.07669 | -120.69293 | 39064 ft | 454 kts | 182° |
| 2026-04-24 04:43 | 38.01357 | -120.68828 | 39069 ft | 455 kts | 182° |
| 2026-04-24 04:43 | 37.95048 | -120.68363 | 39048 ft | 454 kts | 182° |
| 2026-04-24 04:44 | 37.88737 | -120.67898 | 39040 ft | 454 kts | 183° |
| 2026-04-24 04:44 | 37.82434 | -120.67435 | 39037 ft | 453 kts | 183° |
| 2026-04-24 04:45 | 37.76136 | -120.66973 | 39033 ft | 453 kts | 183° |
| 2026-04-24 04:45 | 37.69841 | -120.66513 | 39022 ft | 453 kts | 183° |
| 2026-04-24 04:46 | 37.63543 | -120.66052 | 39028 ft | 453 kts | 183° |
| 2026-04-24 04:46 | 37.57293 | -120.65596 | 39026 ft | 453 kts | 183° |
| 2026-04-24 04:47 | 37.50995 | -120.65137 | 39015 ft | 453 kts | 183° |
| 2026-04-24 04:47 | 37.44697 | -120.64679 | 39025 ft | 454 kts | 183° |
| 2026-04-24 04:48 | 37.38395 | -120.64221 | 39024 ft | 453 kts | 183° |
| 2026-04-24 04:48 | 37.32098 | -120.63519 | 39002 ft | 461 kts | 172° |
| 2026-04-24 04:49 | 37.25870 | -120.61484 | 39010 ft | 462 kts | 172° |
| 2026-04-24 04:49 | 37.19636 | -120.59474 | 39032 ft | 463 kts | 172° |
| 2026-04-24 04:50 | 37.13399 | -120.57451 | 39023 ft | 462 kts | 172° |
| 2026-04-24 04:50 | 37.07195 | -120.55441 | 39033 ft | 460 kts | 172° |
| 2026-04-24 04:51 | 37.01003 | -120.53438 | 39038 ft | 459 kts | 172° |
| 2026-04-24 04:51 | 36.94812 | -120.51439 | 39025 ft | 459 kts | 172° |
| 2026-04-24 04:52 | 36.88647 | -120.49451 | 39039 ft | 457 kts | 172° |
| 2026-04-24 04:52 | 36.82531 | -120.47483 | 39041 ft | 457 kts | 172° |
| 2026-04-24 04:53 | 36.76378 | -120.45506 | 39047 ft | 457 kts | 172° |
| 2026-04-24 04:53 | 36.70224 | -120.43532 | 39032 ft | 455 kts | 172° |
| 2026-04-24 04:54 | 36.64094 | -120.41569 | 39044 ft | 455 kts | 172° |
| 2026-04-24 04:54 | 36.57958 | -120.39608 | 39050 ft | 455 kts | 173° |
| 2026-04-24 04:55 | 36.51814 | -120.37647 | 39044 ft | 456 kts | 173° |
| 2026-04-24 04:55 | 36.45666 | -120.35687 | 39043 ft | 456 kts | 173° |
| 2026-04-24 04:56 | 36.39517 | -120.33731 | 39047 ft | 456 kts | 173° |
| 2026-04-24 04:56 | 36.33375 | -120.31780 | 39039 ft | 455 kts | 173° |
| 2026-04-24 04:57 | 36.27233 | -120.29832 | 39049 ft | 455 kts | 173° |
| 2026-04-24 04:57 | 36.21098 | -120.27890 | 39042 ft | 455 kts | 173° |
| 2026-04-24 04:58 | 36.15999 | -120.26278 | 39024 ft | 455 kts | 173° |
| 2026-04-24 04:58 | 36.08866 | -120.24027 | 39044 ft | 455 kts | 173° |
| 2026-04-24 04:59 | 36.02729 | -120.22093 | 39044 ft | 455 kts | 173° |
| 2026-04-24 04:59 | 35.96588 | -120.20161 | 39034 ft | 455 kts | 173° |
| 2026-04-24 05:00 | 35.91488 | -120.18562 | 39033 ft | 455 kts | 173° |
| 2026-04-24 05:00 | 35.85349 | -120.16635 | 39047 ft | 455 kts | 173° |
| 2026-04-24 05:01 | 35.79216 | -120.14751 | 39007 ft | 451 kts | 175° |
| 2026-04-24 05:01 | 35.73108 | -120.12813 | 38996 ft | 454 kts | 173° |
| 2026-04-24 05:02 | 35.67002 | -120.10740 | 39024 ft | 463 kts | 164° |
| 2026-04-24 05:02 | 35.61331 | -120.06721 | 39030 ft | 474 kts | 156° |
| 2026-04-24 05:03 | 35.55691 | -120.02533 | 39033 ft | 475 kts | 156° |
| 2026-04-24 05:03 | 35.50057 | -119.98298 | 39040 ft | 476 kts | 156° |
| 2026-04-24 05:04 | 35.44420 | -119.94062 | 39036 ft | 475 kts | 156° |
| 2026-04-24 05:04 | 35.38778 | -119.89830 | 39026 ft | 475 kts | 156° |
| 2026-04-24 05:05 | 35.33139 | -119.85605 | 39043 ft | 476 kts | 157° |
| 2026-04-24 05:05 | 35.27565 | -119.81157 | 39008 ft | 483 kts | 150° |
| 2026-04-24 05:06 | 35.24894 | -119.78676 | 38808 ft | 481 kts | 150° |
| 2026-04-24 05:06 | 35.22242 | -119.76204 | 38159 ft | 478 kts | 150° |
| 2026-04-24 05:06 | 35.19596 | -119.73732 | 37348 ft | 480 kts | 150° |
| 2026-04-24 05:06 | 35.16934 | -119.71247 | 36593 ft | 481 kts | 150° |
| 2026-04-24 05:07 | 35.14274 | -119.68765 | 35900 ft | 481 kts | 149° |
| 2026-04-24 05:07 | 35.11616 | -119.66288 | 35185 ft | 481 kts | 149° |
| 2026-04-24 05:07 | 35.08990 | -119.63842 | 34425 ft | 483 kts | 149° |
| 2026-04-24 05:07 | 35.06302 | -119.61342 | 33567 ft | 486 kts | 148° |
| 2026-04-24 05:08 | 35.03610 | -119.58839 | 32656 ft | 487 kts | 148° |
| 2026-04-24 05:08 | 35.00913 | -119.56334 | 31855 ft | 487 kts | 148° |
| 2026-04-24 05:08 | 34.98219 | -119.53833 | 31067 ft | 487 kts | 148° |
| 2026-04-24 05:08 | 34.95515 | -119.51326 | 30169 ft | 489 kts | 147° |
| 2026-04-24 05:09 | 34.92795 | -119.48806 | 29079 ft | 493 kts | 147° |
| 2026-04-24 05:09 | 34.90068 | -119.46348 | 28471 ft | 480 kts | 148° |
| 2026-04-24 05:09 | 34.87436 | -119.43990 | 28162 ft | 460 kts | 148° |
| 2026-04-24 05:09 | 34.84899 | -119.41717 | 27692 ft | 446 kts | 148° |
| 2026-04-24 05:10 | 34.82420 | -119.39492 | 27217 ft | 440 kts | 148° |
| 2026-04-24 05:10 | 34.79962 | -119.37288 | 26750 ft | 438 kts | 148° |
| 2026-04-24 05:10 | 34.77521 | -119.35102 | 26281 ft | 434 kts | 148° |
| 2026-04-24 05:10 | 34.75094 | -119.32939 | 25827 ft | 431 kts | 148° |
| 2026-04-24 05:11 | 34.72668 | -119.30816 | 25306 ft | 428 kts | 148° |
| 2026-04-24 05:11 | 34.70262 | -119.28709 | 24868 ft | 424 kts | 148° |
| 2026-04-24 05:11 | 34.67875 | -119.26620 | 24430 ft | 421 kts | 148° |
| 2026-04-24 05:11 | 34.65512 | -119.24557 | 23997 ft | 417 kts | 148° |
| 2026-04-24 05:12 | 34.63152 | -119.22519 | 23472 ft | 416 kts | 148° |
| 2026-04-24 05:12 | 34.60797 | -119.20485 | 22959 ft | 414 kts | 148° |
| 2026-04-24 05:12 | 34.58461 | -119.18470 | 22530 ft | 409 kts | 148° |
| 2026-04-24 05:12 | 34.56161 | -119.16468 | 22058 ft | 406 kts | 148° |
| 2026-04-24 05:13 | 34.51622 | -119.12447 | 21139 ft | 401 kts | 148° |
| 2026-04-24 05:13 | 34.49374 | -119.10462 | 20672 ft | 399 kts | 148° |
| 2026-04-24 05:13 | 34.47137 | -119.08482 | 20211 ft | 397 kts | 148° |
| 2026-04-24 05:14 | 34.44901 | -119.06513 | 19774 ft | 396 kts | 148° |
| 2026-04-24 05:14 | 34.42647 | -119.04559 | 19102 ft | 401 kts | 148° |
| 2026-04-24 05:14 | 34.40373 | -119.02587 | 18499 ft | 403 kts | 148° |
| 2026-04-24 05:14 | 34.38089 | -119.00605 | 17844 ft | 406 kts | 148° |
| 2026-04-24 05:15 | 34.35807 | -118.98625 | 17228 ft | 402 kts | 148° |
| 2026-04-24 05:15 | 34.33569 | -118.96639 | 16691 ft | 396 kts | 146° |
| 2026-04-24 05:15 | 34.31392 | -118.94662 | 16224 ft | 384 kts | 147° |
| 2026-04-24 05:15 | 34.29279 | -118.92752 | 15804 ft | 377 kts | 146° |
| 2026-04-24 05:16 | 34.27210 | -118.90885 | 15365 ft | 375 kts | 146° |
| 2026-04-24 05:16 | 34.25125 | -118.88990 | 14867 ft | 375 kts | 146° |
| 2026-04-24 05:16 | 34.23047 | -118.87078 | 14377 ft | 374 kts | 145° |
| 2026-04-24 05:16 | 34.21017 | -118.85214 | 13972 ft | 360 kts | 145° |
| 2026-04-24 05:17 | 34.19058 | -118.83417 | 13542 ft | 347 kts | 145° |
| 2026-04-24 05:17 | 34.17164 | -118.81681 | 13092 ft | 336 kts | 145° |
| 2026-04-24 05:17 | 34.15420 | -118.79870 | 12695 ft | 326 kts | 139° |
| 2026-04-24 05:17 | 34.13778 | -118.78060 | 12379 ft | 315 kts | 140° |
| 2026-04-24 05:18 | 34.12156 | -118.76292 | 12085 ft | 315 kts | 140° |
| 2026-04-24 05:18 | 34.10523 | -118.74522 | 11759 ft | 316 kts | 140° |
| 2026-04-24 05:18 | 34.08885 | -118.72760 | 11458 ft | 315 kts | 140° |
| 2026-04-24 05:18 | 34.07253 | -118.70996 | 11090 ft | 315 kts | 140° |
| 2026-04-24 05:19 | 34.05623 | -118.69247 | 10770 ft | 311 kts | 141° |
| 2026-04-24 05:19 | 34.04025 | -118.67577 | 10458 ft | 299 kts | 134° |
| 2026-04-24 05:19 | 34.02997 | -118.65449 | 10074 ft | 293 kts | 106° |
| 2026-04-24 05:19 | 34.02681 | -118.63045 | 9780 ft | 290 kts | 97° |
| 2026-04-24 05:20 | 34.02442 | -118.60639 | 9461 ft | 288 kts | 97° |
| 2026-04-24 05:20 | 34.02208 | -118.58252 | 9141 ft | 284 kts | 97° |
| 2026-04-24 05:20 | 34.01987 | -118.55950 | 8876 ft | 272 kts | 96° |
| 2026-04-24 05:20 | 34.01775 | -118.53716 | 8562 ft | 263 kts | 96° |
| 2026-04-24 05:21 | 34.01572 | -118.51567 | 8270 ft | 253 kts | 96° |
| 2026-04-24 05:21 | 34.01376 | -118.49498 | 8003 ft | 245 kts | 96° |
| 2026-04-24 05:21 | 34.01184 | -118.47470 | 7764 ft | 242 kts | 96° |
| 2026-04-24 05:21 | 34.01098 | -118.45453 | 7468 ft | 241 kts | 83° |
| 2026-04-24 05:22 | 34.01400 | -118.43503 | 7181 ft | 239 kts | 78° |
| 2026-04-24 05:22 | 34.01736 | -118.41547 | 6871 ft | 236 kts | 78° |
| 2026-04-24 05:22 | 34.02074 | -118.39582 | 6585 ft | 236 kts | 78° |
| 2026-04-24 05:22 | 34.02402 | -118.37672 | 6299 ft | 236 kts | 78° |
| 2026-04-24 05:23 | 34.02717 | -118.35737 | 6058 ft | 233 kts | 82° |
| 2026-04-24 05:23 | 34.02917 | -118.33816 | 6057 ft | 232 kts | 83° |
| 2026-04-24 05:23 | 34.03120 | -118.31877 | 6040 ft | 234 kts | 83° |
| 2026-04-24 05:23 | 34.03325 | -118.29942 | 6022 ft | 232 kts | 82° |
| 2026-04-24 05:24 | 34.03538 | -118.28005 | 5896 ft | 233 kts | 82° |
| 2026-04-24 05:24 | 34.03749 | -118.26077 | 5624 ft | 232 kts | 82° |
| 2026-04-24 05:24 | 34.03960 | -118.24150 | 5353 ft | 231 kts | 82° |
| 2026-04-24 05:24 | 34.04170 | -118.22231 | 5059 ft | 231 kts | 82° |
| 2026-04-24 05:25 | 34.04380 | -118.20312 | 4782 ft | 231 kts | 82° |
| 2026-04-24 05:25 | 34.04590 | -118.18396 | 4480 ft | 231 kts | 82° |
| 2026-04-24 05:25 | 34.04801 | -118.16478 | 4215 ft | 230 kts | 81° |
| 2026-04-24 05:25 | 34.05009 | -118.14578 | 4022 ft | 228 kts | 82° |
| 2026-04-24 05:26 | 34.05218 | -118.12675 | 3991 ft | 229 kts | 82° |
| 2026-04-24 05:26 | 34.05406 | -118.10767 | 3989 ft | 230 kts | 88° |
| 2026-04-24 05:26 | 34.05024 | -118.08928 | 3944 ft | 228 kts | 122° |
| 2026-04-24 05:26 | 34.03912 | -118.07657 | 3961 ft | 216 kts | 156° |
| 2026-04-24 05:27 | 34.02512 | -118.07184 | 4013 ft | 207 kts | 171° |
| 2026-04-24 05:27 | 34.01090 | -118.06918 | 4018 ft | 206 kts | 179° |
| 2026-04-24 05:27 | 33.99730 | -118.07312 | 3938 ft | 201 kts | 213° |
| 2026-04-24 05:27 | 33.98819 | -118.08497 | 3942 ft | 186 kts | 247° |
| 2026-04-24 05:28 | 33.98457 | -118.09948 | 4032 ft | 180 kts | 258° |
| 2026-04-24 05:28 | 33.98224 | -118.11428 | 4038 ft | 179 kts | 261° |
| 2026-04-24 05:28 | 33.98036 | -118.12909 | 4029 ft | 178 kts | 263° |
| 2026-04-24 05:28 | 33.97870 | -118.14387 | 3998 ft | 178 kts | 263° |
| 2026-04-24 05:29 | 33.97712 | -118.15874 | 3942 ft | 180 kts | 263° |
| 2026-04-24 05:29 | 33.97559 | -118.17337 | 3723 ft | 178 kts | 263° |
| 2026-04-24 05:29 | 33.97405 | -118.18825 | 3526 ft | 175 kts | 263° |
| 2026-04-24 05:29 | 33.97254 | -118.20286 | 3323 ft | 175 kts | 263° |
| 2026-04-24 05:30 | 33.97104 | -118.21742 | 3103 ft | 175 kts | 263° |
| 2026-04-24 05:30 | 33.96957 | -118.23191 | 2912 ft | 174 kts | 263° |
| 2026-04-24 05:30 | 33.96808 | -118.24643 | 2666 ft | 174 kts | 263° |
| 2026-04-24 05:30 | 33.96660 | -118.26076 | 2430 ft | 175 kts | 263° |
| 2026-04-24 05:31 | 33.96508 | -118.27553 | 2190 ft | 174 kts | 263° |
| 2026-04-24 05:31 | 33.96370 | -118.28905 | 1966 ft | 156 kts | 263° |
| 2026-04-24 05:31 | 33.96240 | -118.30176 | 1758 ft | 150 kts | 262° |
| 2026-04-24 05:31 | 33.96112 | -118.31421 | 1559 ft | 150 kts | 262° |
| 2026-04-24 05:32 | 33.95992 | -118.32675 | 1343 ft | 151 kts | 262° |
| 2026-04-24 05:32 | 33.95866 | -118.33917 | 1151 ft | 148 kts | 262° |
| 2026-04-24 05:32 | 33.95734 | -118.35150 | 960 ft | 146 kts | 262° |
| 2026-04-24 05:32 | 33.95613 | -118.36345 | 753 ft | 143 kts | 262° |
| 2026-04-24 05:33 | 33.95490 | -118.37537 | 556 ft | 143 kts | 262° |
| 2026-04-24 05:33 | 33.95373 | -118.38720 | 354 ft | 143 kts | 261° |
| 2026-04-24 05:33 | 33.95250 | -118.39898 | 167 ft | 142 kts | 261° |
| 2026-04-24 05:34 | 33.95052 | -118.41739 | 97 ft | 50 kts | 263° |
| 2026-04-24 05:34 | 33.94988 | -118.42107 | 96 ft | 34 kts | 244° |
| 2026-04-24 05:34 | 33.94881 | -118.42259 | 99 ft | 3 kts | 214° |
| 2026-04-24 05:34 | 33.94856 | -118.42272 | 100 ft | 4 kts | 201° |
| 2026-04-24 05:35 | 33.94819 | -118.42283 | 100 ft | 8 kts | 192° |
| 2026-04-24 05:35 | 33.94739 | -118.42278 | 97 ft | 16 kts | 173° |
| 2026-04-24 05:35 | 33.94686 | -118.42201 | 96 ft | 14 kts | 87° |
| 2026-04-24 05:35 | 33.94700 | -118.42067 | 99 ft | 18 kts | 84° |
| 2026-04-24 05:36 | 33.94716 | -118.41911 | 97 ft | 19 kts | 82° |
| 2026-04-24 05:36 | 33.94722 | -118.41833 | 96 ft | 1 kts | 93° |
| 2026-04-24 05:36 | 33.94718 | -118.41828 | 95 ft | 1 kts | 140° |
| 2026-04-24 05:36 | 33.94701 | -118.41825 | 97 ft | 6 kts | 173° |
| 2026-04-24 05:37 | 33.94617 | -118.41816 | 96 ft | 18 kts | 175° |
| 2026-04-24 05:37 | 33.94476 | -118.41798 | 98 ft | 22 kts | 171° |
| 2026-04-24 05:37 | 33.94314 | -118.41771 | 95 ft | 25 kts | 174° |
| 2026-04-24 05:37 | 33.94143 | -118.41744 | 95 ft | 25 kts | 172° |
| 2026-04-24 05:38 | 33.93964 | -118.41718 | 95 ft | 27 kts | 173° |
| 2026-04-24 05:38 | 33.93805 | -118.41697 | 97 ft | 15 kts | 173° |
| 2026-04-24 05:38 | 33.93722 | -118.41667 | 97 ft | 10 kts | 135° |
| 2026-04-24 05:38 | 33.93715 | -118.41602 | 99 ft | 8 kts | 82° |
| 2026-04-24 05:39 | 33.93722 | -118.41538 | 98 ft | 8 kts | 83° |
| 2026-04-24 05:39 | 33.93729 | -118.41467 | 97 ft | 10 kts | 83° |
| 2026-04-24 05:39 | 33.93738 | -118.41372 | 99 ft | 13 kts | 83° |
| 2026-04-24 05:39 | 33.93751 | -118.41242 | 97 ft | 18 kts | 83° |
| 2026-04-24 05:40 | 33.93768 | -118.41076 | 97 ft | 21 kts | 82° |
| 2026-04-24 05:40 | 33.93785 | -118.40905 | 96 ft | 20 kts | 84° |
| 2026-04-24 05:40 | 33.93801 | -118.40750 | 97 ft | 18 kts | 83° |
| 2026-04-24 05:40 | 33.93816 | -118.40610 | 97 ft | 16 kts | 82° |
| 2026-04-24 05:41 | 33.93831 | -118.40483 | 97 ft | 15 kts | 83° |
| 2026-04-24 05:41 | 33.93841 | -118.40368 | 98 ft | 13 kts | 84° |
| 2026-04-24 05:41 | 33.93864 | -118.40290 | 97 ft | 6 kts | 29° |
| 2026-04-24 05:41 | 33.93903 | -118.40291 | 97 ft | 6 kts | 352° |
| 2026-04-24 05:42 | 33.93962 | -118.40299 | 96 ft | 11 kts | 354° |
| 2026-04-24 05:42 | 33.94037 | -118.40314 | 98 ft | 10 kts | 351° |
| 2026-04-24 05:42 | 33.94104 | -118.40324 | 95 ft | 9 kts | 352° |
| 2026-04-24 05:42 | 33.94144 | -118.40326 | 97 ft | 0 kts | 30° |
| 2026-04-24 05:43 | 33.94145 | -118.40325 | 95 ft | 0 kts | 37° |
| 2026-04-24 05:43 | 33.94144 | -118.40313 | 95 ft | 4 kts | 105° |
| 2026-04-24 05:43 | 33.94144 | -118.40283 | 97 ft | 1 kts | 87° |
| 2026-04-24 05:43 | 33.94144 | -118.40273 | 95 ft | 0 kts | 87° |